createdAt,value
2017-11-14T06:03:23.474Z,3
2017-11-14T06:09:53.843Z,7
2017-11-14T06:12:23.999Z,10
2017-11-14T06:14:24.126Z,13
2017-11-14T06:15:54.235Z,17
2017-11-14T06:16:54.365Z,20
2017-11-14T06:17:54.349Z,23
2017-11-14T06:18:54.456Z,27
2017-11-14T06:19:54.469Z,30
2017-11-14T06:20:54.595Z,33
2017-11-14T06:21:24.567Z,37
2017-11-14T06:22:24.650Z,40
2017-11-14T06:22:54.631Z,43
2017-11-14T06:23:24.696Z,47
2017-11-14T06:23:54.700Z,50
2017-11-14T06:24:24.745Z,53
2017-11-14T06:25:24.794Z,57
2017-11-14T06:25:54.813Z,63
2017-11-14T06:26:24.885Z,67
2017-11-14T06:26:54.888Z,70
2017-11-14T06:27:25.093Z,73
2017-11-14T06:27:54.956Z,77
2017-11-14T06:28:24.987Z,80
2017-11-14T06:28:55.027Z,87
2017-11-14T06:29:25.068Z,90
2017-11-14T06:29:55.061Z,97
2017-11-14T06:30:25.106Z,100
2017-11-14T06:30:55.150Z,103
2017-11-14T06:31:25.175Z,110
2017-11-14T06:31:55.266Z,117
2017-11-14T06:32:25.308Z,120
2017-11-14T06:32:55.245Z,127
2017-11-14T06:33:25.318Z,133
2017-11-14T06:33:55.335Z,140
2017-11-14T06:34:25.446Z,147
2017-11-14T06:34:55.444Z,153
2017-11-14T06:35:25.503Z,160
2017-11-14T06:35:55.481Z,167
2017-11-14T06:36:25.521Z,173
2017-11-14T06:36:55.580Z,180
2017-11-14T06:37:25.586Z,187
2017-11-14T06:37:55.586Z,197
2017-11-14T06:38:25.628Z,203
2017-11-14T06:38:55.687Z,210
2017-11-14T06:39:25.702Z,217
2017-11-14T06:39:55.735Z,223
2017-11-14T06:40:25.758Z,230
2017-11-14T06:40:55.814Z,240
2017-11-14T06:41:25.852Z,247
2017-11-14T06:41:55.897Z,257
2017-11-14T06:42:25.896Z,263
2017-11-14T06:42:55.897Z,273
2017-11-14T06:43:25.978Z,280
2017-11-14T06:43:55.981Z,290
2017-11-14T06:44:26.021Z,300
2017-11-14T06:44:56.058Z,313
2017-11-14T06:45:26.082Z,323
2017-11-14T06:45:56.092Z,333
2017-11-14T06:46:26.146Z,347
2017-11-14T06:46:56.308Z,357
2017-11-14T06:47:26.220Z,370
2017-11-14T06:47:56.224Z,383
2017-11-14T06:48:26.263Z,397
2017-11-14T06:48:56.273Z,413
2017-11-14T06:49:26.338Z,427
2017-11-14T06:49:56.365Z,437
2017-11-14T06:50:26.374Z,450
2017-11-14T06:50:56.397Z,463
2017-11-14T06:51:26.396Z,477
2017-11-14T06:51:56.469Z,490
2017-11-14T06:52:26.509Z,503
2017-11-14T06:52:56.525Z,520
2017-11-14T06:53:26.527Z,533
2017-11-14T06:53:56.544Z,543
2017-11-14T06:54:26.584Z,560
2017-11-14T06:54:56.637Z,577
2017-11-14T06:55:26.646Z,590
2017-11-14T06:55:56.724Z,607
2017-11-14T06:56:26.719Z,630
2017-11-14T06:56:56.790Z,643
2017-11-14T06:57:26.772Z,663
2017-11-14T06:57:56.784Z,683
2017-11-14T06:58:26.824Z,707
2017-11-14T06:58:56.841Z,727
2017-11-14T06:59:26.888Z,750
2017-11-14T06:59:56.903Z,770
2017-11-14T07:00:26.954Z,800
2017-11-14T07:00:56.981Z,830
2017-11-14T07:01:27.046Z,853
2017-11-14T07:01:57.062Z,880
2017-11-14T07:02:27.078Z,907
2017-11-14T07:02:57.089Z,930
2017-11-14T07:03:27.135Z,947
2017-11-14T07:03:57.150Z,973
2017-11-14T07:04:27.230Z,983
2017-11-14T07:04:57.231Z,1007
2017-11-14T07:05:27.325Z,1013
2017-11-14T07:05:57.334Z,1030
2017-11-14T07:06:27.320Z,1050
2017-11-14T07:06:57.427Z,1087
2017-11-14T07:07:27.385Z,1187
2017-11-14T07:07:57.444Z,1340
2017-11-14T07:08:27.512Z,1527
2017-11-14T07:08:57.472Z,1740
2017-11-14T07:09:27.566Z,1857
2017-11-14T07:09:57.564Z,1923
2017-11-14T07:10:27.593Z,2003
2017-11-14T07:10:57.588Z,2037
2017-11-14T07:11:27.666Z,2113
2017-11-14T07:11:57.695Z,2150
2017-11-14T07:12:27.683Z,2220
2017-11-14T07:12:57.722Z,2243
2017-11-14T07:13:27.750Z,2330
2017-11-14T07:13:57.783Z,2373
2017-11-14T07:14:27.813Z,2413
2017-11-14T07:14:57.831Z,2477
2017-11-14T07:15:27.889Z,2517
2017-11-14T07:15:57.927Z,2547
2017-11-14T07:16:27.933Z,2520
2017-11-14T07:16:58.006Z,2183
2017-11-14T07:17:28.010Z,2377
2017-11-14T07:17:58.006Z,2470
2017-11-14T07:18:28.092Z,2373
2017-11-14T07:18:58.086Z,2303
2017-11-14T07:19:28.125Z,1963
2017-11-14T07:19:58.147Z,2040
2017-11-14T07:20:28.235Z,2180
2017-11-14T07:20:58.210Z,2590
2017-11-14T07:21:28.285Z,2817
2017-11-14T07:21:58.300Z,3177
2017-11-14T07:22:28.343Z,3363
2017-11-14T07:22:58.330Z,3397
2017-11-14T07:23:28.454Z,3500
2017-11-14T07:23:58.380Z,3593
2017-11-14T07:24:28.485Z,3627
2017-11-14T07:24:58.499Z,3727
2017-11-14T07:25:28.514Z,3833
2017-11-14T07:26:28.571Z,3863
2017-11-14T07:26:58.608Z,3967
2017-11-14T07:27:28.657Z,3857
2017-11-14T07:27:58.661Z,4107
2017-11-14T07:28:58.724Z,4330
2017-11-14T07:29:28.731Z,4363
2017-11-14T07:29:58.786Z,4460
2017-11-14T07:30:28.863Z,4540
2017-11-14T07:30:58.841Z,4683
2017-11-14T07:31:28.921Z,4703
2017-11-14T07:31:58.943Z,4747
2017-11-14T07:32:28.974Z,4767
2017-11-14T07:32:58.974Z,4817
2017-11-14T07:33:28.988Z,4767
2017-11-14T07:33:59.033Z,4717
2017-11-14T07:34:29.117Z,4343
2017-11-14T07:34:59.107Z,3717
2017-11-14T07:35:29.160Z,3620
2017-11-14T07:35:59.155Z,3400
2017-11-14T07:36:29.239Z,3463
2017-11-14T07:36:59.222Z,3237
2017-11-14T07:37:29.247Z,2453
2017-11-14T07:37:59.294Z,2543
2017-11-14T07:38:29.358Z,2950
2017-11-14T07:38:59.348Z,3597
2017-11-14T07:39:29.403Z,4117
2017-11-14T07:39:59.393Z,4770
2017-11-14T07:40:29.461Z,5133
2017-11-14T07:40:59.495Z,5077
2017-11-14T07:41:29.540Z,5020
2017-11-14T07:41:59.544Z,5033
2017-11-14T07:42:29.543Z,5377
2017-11-14T07:42:59.556Z,5897
2017-11-14T07:43:29.602Z,6143
2017-11-14T07:43:59.601Z,6080
2017-11-14T07:44:29.702Z,6157
2017-11-14T07:44:59.682Z,6213
2017-11-14T07:45:29.734Z,6497
2017-11-14T07:45:59.725Z,6427
2017-11-14T07:46:29.774Z,6583
2017-11-14T07:46:59.827Z,6067
2017-11-14T07:47:29.850Z,6263
2017-11-14T07:47:59.850Z,6563
2017-11-14T07:48:29.898Z,7153
2017-11-14T07:48:59.921Z,7497
2017-11-14T07:49:29.962Z,6533
2017-11-14T07:49:59.976Z,7040
2017-11-14T07:50:30.036Z,6157
2017-11-14T07:51:00.040Z,6173
2017-11-14T07:51:30.081Z,6430
2017-11-14T07:52:00.157Z,6970
2017-11-14T07:52:30.146Z,7887
2017-11-14T07:53:00.224Z,7690
2017-11-14T07:53:30.250Z,7220
2017-11-14T07:54:00.608Z,6753
2017-11-14T07:54:30.311Z,6537
2017-11-14T07:55:00.751Z,6627
2017-11-14T07:55:30.397Z,6803
2017-11-14T07:56:00.745Z,7420
2017-11-14T07:56:30.466Z,7973
2017-11-14T07:57:30.522Z,8047
2017-11-14T07:58:00.832Z,8083
2017-11-14T07:58:30.529Z,8460
2017-11-14T07:59:01.017Z,8410
2017-11-14T07:59:30.623Z,7573
2017-11-14T08:00:01.078Z,7350
2017-11-14T08:00:30.709Z,6290
2017-11-14T08:01:00.837Z,5463
2017-11-14T08:01:30.695Z,5433
2017-11-14T08:02:00.707Z,5110
2017-11-14T08:02:30.893Z,5043
2017-11-14T08:03:00.775Z,5520
2017-11-14T08:03:30.830Z,5950
2017-11-14T08:04:00.958Z,6263
2017-11-14T08:04:30.917Z,6173
2017-11-14T08:05:01.083Z,6483
2017-11-14T08:05:30.940Z,6857
2017-11-14T08:06:00.959Z,6293
2017-11-14T08:06:31.013Z,6423
2017-11-14T08:07:01.013Z,5507
2017-11-14T08:07:31.215Z,6917
2017-11-14T08:08:01.303Z,6877
2017-11-14T08:08:31.129Z,6527
2017-11-14T08:09:01.176Z,4627
2017-11-14T08:09:31.200Z,3653
2017-11-14T08:10:01.208Z,3477
2017-11-14T08:10:31.270Z,3650
2017-11-14T08:11:01.274Z,3660
2017-11-14T08:11:31.385Z,3780
2017-11-14T08:12:02.185Z,4083
2017-11-14T08:12:31.471Z,4387
2017-11-14T08:13:01.387Z,5693
2017-11-14T08:13:31.450Z,7643
2017-11-14T08:14:01.470Z,7043
2017-11-14T08:14:31.529Z,7590
2017-11-14T08:15:02.363Z,7777
2017-11-14T08:15:31.589Z,8050
2017-11-14T08:16:01.567Z,8373
2017-11-14T08:16:31.650Z,8873
2017-11-14T08:17:01.652Z,9030
2017-11-14T08:17:31.767Z,9813
2017-11-14T08:18:01.701Z,10507
2017-11-14T08:18:31.809Z,11730
2017-11-14T08:19:01.828Z,12327
2017-11-14T08:19:31.879Z,12590
2017-11-14T08:20:01.856Z,12450
2017-11-14T08:20:31.866Z,12250
2017-11-14T08:21:01.954Z,9890
2017-11-14T08:21:31.976Z,9050
2017-11-14T08:22:02.002Z,8460
2017-11-14T08:22:32.111Z,11363
2017-11-14T08:23:02.043Z,10190
2017-11-14T08:23:32.044Z,11960
2017-11-14T08:24:02.064Z,14560
2017-11-14T08:24:32.116Z,15143
2017-11-14T08:25:02.191Z,15503
2017-11-14T08:25:32.202Z,14587
2017-11-14T08:26:02.264Z,14647
2017-11-14T08:26:32.255Z,14083
2017-11-14T08:27:02.246Z,12143
2017-11-14T08:27:32.376Z,12383
2017-11-14T08:28:02.357Z,10340
2017-11-14T08:28:32.380Z,8680
2017-11-14T08:29:02.428Z,8240
2017-11-14T08:29:32.490Z,7297
2017-11-14T08:30:02.497Z,6823
2017-11-14T08:30:32.513Z,7447
2017-11-14T08:31:02.520Z,8303
2017-11-14T08:31:32.584Z,8740
2017-11-14T08:32:02.588Z,11477
2017-11-14T08:32:32.666Z,10957
2017-11-14T08:33:02.617Z,10807
2017-11-14T08:33:32.663Z,13080
2017-11-14T08:34:02.680Z,14660
2017-11-14T08:34:32.724Z,8893
2017-11-14T08:35:02.736Z,7277
2017-11-14T08:35:32.786Z,6153
2017-11-14T08:36:02.804Z,6323
2017-11-14T08:36:32.848Z,6937
2017-11-14T08:37:02.887Z,8373
2017-11-14T08:37:32.967Z,8957
2017-11-14T08:38:02.927Z,10693
2017-11-14T08:38:32.997Z,12770
2017-11-14T08:39:03.054Z,12660
2017-11-14T08:39:33.032Z,11060
2017-11-14T08:40:03.045Z,11197
2017-11-14T08:40:33.087Z,15610
2017-11-14T08:41:03.105Z,16330
2017-11-14T08:41:33.150Z,17027
2017-11-14T08:42:03.169Z,18123
2017-11-14T08:42:33.324Z,18497
2017-11-14T08:43:03.272Z,18713
2017-11-14T08:44:03.320Z,18750
2017-11-14T08:44:33.369Z,18810
2017-11-14T08:45:03.410Z,18980
2017-11-14T08:45:33.423Z,19070
2017-11-14T08:46:03.464Z,19053
2017-11-14T08:47:03.491Z,19180
2017-11-14T08:47:33.574Z,19233
2017-11-14T08:48:03.589Z,15233
2017-11-14T08:48:33.617Z,18850
2017-11-14T08:49:03.661Z,19167
2017-11-14T08:49:33.673Z,14640
2017-11-14T08:50:03.668Z,11003
2017-11-14T08:50:33.709Z,17507
2017-11-14T08:51:03.737Z,13710
2017-11-14T08:51:33.768Z,15630
2017-11-14T08:52:03.795Z,8857
2017-11-14T08:52:33.917Z,7833
2017-11-14T08:53:03.857Z,7530
2017-11-14T08:53:33.899Z,7393
2017-11-14T08:54:03.929Z,7503
2017-11-14T08:54:33.954Z,7527
2017-11-14T08:55:04.137Z,7807
2017-11-14T08:55:34.018Z,8003
2017-11-14T08:56:04.035Z,7977
2017-11-14T08:56:34.073Z,8423
2017-11-14T08:57:04.089Z,9337
2017-11-14T08:57:34.195Z,8387
2017-11-14T08:58:04.209Z,8673
2017-11-14T08:58:34.287Z,9750
2017-11-14T08:59:04.222Z,17227
2017-11-14T08:59:34.307Z,15327
2017-11-14T09:00:04.344Z,10557
2017-11-14T09:00:34.362Z,9987
2017-11-14T09:01:04.400Z,9900
2017-11-14T09:01:34.452Z,10397
2017-11-14T09:02:04.468Z,10523
2017-11-14T09:02:34.582Z,9833
2017-11-14T09:03:04.525Z,9213
2017-11-14T09:03:34.577Z,8747
2017-11-14T09:04:04.595Z,8320
2017-11-14T09:04:34.596Z,7987
2017-11-14T09:05:04.676Z,7683
2017-11-14T09:05:34.665Z,7410
2017-11-14T09:06:04.682Z,7113
2017-11-14T09:06:34.745Z,6713
2017-11-14T09:07:04.748Z,6383
2017-11-14T09:07:34.877Z,6063
2017-11-14T09:08:04.819Z,5817
2017-11-14T09:08:34.851Z,5600
2017-11-14T09:09:04.861Z,5420
2017-11-14T09:09:34.917Z,5250
2017-11-14T09:10:04.940Z,5083
2017-11-14T09:10:34.941Z,4937
2017-11-14T09:11:04.996Z,4823
2017-11-14T09:11:35.050Z,4750
2017-11-14T09:12:05.085Z,4727
2017-11-14T09:12:35.142Z,4730
2017-11-14T09:13:05.147Z,4790
2017-11-14T09:13:35.167Z,4843
2017-11-14T09:14:05.194Z,4950
2017-11-14T09:14:35.277Z,5070
2017-11-14T09:15:05.266Z,5227
2017-11-14T09:15:35.245Z,5390
2017-11-14T09:16:05.316Z,5547
2017-11-14T09:16:35.308Z,5723
2017-11-14T09:17:05.354Z,5897
2017-11-14T09:17:35.440Z,6047
2017-11-14T09:18:05.419Z,6207
2017-11-14T09:18:35.501Z,6373
2017-11-14T09:19:05.529Z,6607
2017-11-14T09:19:35.541Z,6867
2017-11-14T09:20:05.514Z,7137
2017-11-14T09:20:35.608Z,7390
2017-11-14T09:21:05.606Z,7620
2017-11-14T09:21:35.674Z,7717
2017-11-14T09:22:05.670Z,7913
2017-11-14T09:25:35.968Z,7040
2017-11-14T09:26:06.543Z,6747
2017-11-14T09:26:36.037Z,6533
2017-11-14T09:27:06.079Z,6310
2017-11-14T09:27:36.030Z,6130
2017-11-14T09:28:06.111Z,5967
2017-11-14T09:28:36.053Z,5820
2017-11-14T09:29:06.063Z,5760
2017-11-14T09:29:36.116Z,5783
2017-11-14T09:30:06.150Z,5833
2017-11-14T09:30:36.196Z,5793
2017-11-14T09:31:06.207Z,5583
2017-11-14T09:31:36.302Z,5427
2017-11-14T09:32:06.312Z,5317
2017-11-14T09:32:36.332Z,5180
2017-11-14T09:33:06.394Z,5053
2017-11-14T09:33:36.463Z,4950
2017-11-14T09:34:06.420Z,4870
2017-11-14T09:34:36.472Z,4760
2017-11-14T09:35:06.500Z,4543
2017-11-14T09:35:36.547Z,4483
2017-11-14T09:36:06.523Z,4477
2017-11-14T09:36:36.575Z,4390
2017-11-14T09:37:06.596Z,4120
2017-11-14T09:37:36.623Z,3983
2017-11-14T09:38:06.712Z,3877
2017-11-14T09:38:36.688Z,3833
2017-11-14T09:39:06.758Z,3813
2017-11-14T09:39:36.763Z,3803
2017-11-14T09:40:06.760Z,3783
2017-11-14T09:40:36.801Z,3760
2017-11-14T09:41:06.825Z,3733
2017-11-14T09:41:36.865Z,3713
2017-11-14T09:42:06.912Z,3683
2017-11-14T09:42:36.928Z,3663
2017-11-14T09:43:07.016Z,3653
2017-11-14T09:43:36.986Z,3627
2017-11-14T09:44:07.005Z,3597
2017-11-14T09:44:37.100Z,3593
2017-11-14T09:45:07.072Z,3660
2017-11-14T09:45:37.106Z,3753
2017-11-14T09:46:07.153Z,3870
2017-11-14T09:46:37.178Z,4053
2017-11-14T09:47:07.205Z,4253
2017-11-14T09:47:37.254Z,4480
2017-11-14T09:48:07.279Z,4707
2017-11-14T09:48:37.328Z,4870
2017-11-14T09:49:07.387Z,5023
2017-11-14T09:49:37.395Z,5140
2017-11-14T09:50:07.422Z,5253
2017-11-14T09:50:37.442Z,5323
2017-11-14T09:51:07.501Z,5353
2017-11-14T09:52:07.583Z,5413
2017-11-14T09:52:37.583Z,5483
2017-11-14T09:53:07.659Z,5540
2017-11-14T09:53:37.665Z,5587
2017-11-14T09:54:07.654Z,5707
2017-11-14T09:54:37.692Z,5933
2017-11-14T09:55:07.717Z,6130
2017-11-14T09:55:37.775Z,6300
2017-11-14T09:56:07.789Z,6253
2017-11-14T09:56:37.848Z,6360
2017-11-14T09:57:07.859Z,6603
2017-11-14T09:57:37.884Z,6973
2017-11-14T09:58:07.934Z,7330
2017-11-14T09:58:37.957Z,7157
2017-11-14T09:59:07.969Z,7267
2017-11-14T09:59:38.034Z,7543
2017-11-14T10:00:24.560Z,7820
2017-11-14T10:00:39.005Z,8073
2017-11-14T10:01:09.020Z,8367
2017-11-14T10:01:39.062Z,8610
2017-11-14T10:02:09.085Z,8717
2017-11-14T10:02:39.218Z,8893
2017-11-14T10:03:09.174Z,9127
2017-11-14T10:03:39.237Z,9363
2017-11-14T10:04:09.305Z,9523
2017-11-14T10:04:39.305Z,9460
2017-11-14T10:05:09.274Z,9363
2017-11-14T10:05:39.358Z,9193
2017-11-14T10:06:09.407Z,8980
2017-11-14T10:06:39.381Z,8733
2017-11-14T10:07:09.416Z,8533
2017-11-14T10:07:39.539Z,8460
2017-11-14T10:08:09.508Z,8577
2017-11-14T10:08:39.502Z,8293
2017-11-14T10:09:09.549Z,8203
2017-11-14T10:09:39.606Z,7767
2017-11-14T10:10:10.326Z,7307
2017-11-14T10:10:39.619Z,7147
2017-11-14T10:11:09.682Z,7113
2017-11-14T10:11:39.682Z,7077
2017-11-14T10:12:09.694Z,7040
2017-11-14T10:12:39.756Z,7117
2017-11-14T10:13:09.808Z,7320
2017-11-14T10:13:39.799Z,7537
2017-11-14T10:14:09.818Z,7777
2017-11-14T10:14:39.891Z,8093
2017-11-14T10:15:09.877Z,8343
2017-11-14T10:15:39.942Z,9090
2017-11-14T10:16:09.936Z,9233
2017-11-14T10:16:39.982Z,10760
2017-11-14T10:17:10.002Z,12897
2017-11-14T10:17:40.057Z,14687
2017-11-14T10:18:10.086Z,13217
2017-11-14T10:18:40.168Z,12300
2017-11-14T10:19:10.123Z,10900
2017-11-14T10:19:40.203Z,11470
2017-11-14T10:20:10.198Z,13203
2017-11-14T10:20:40.282Z,13157
2017-11-14T10:21:10.246Z,13690
2017-11-14T10:21:40.322Z,13917
2017-11-14T10:22:10.356Z,13493
2017-11-14T10:22:40.355Z,13910
2017-11-14T10:23:10.483Z,14920
2017-11-14T10:23:40.457Z,15590
2017-11-14T10:24:10.452Z,11827
2017-11-14T10:24:40.542Z,10523
2017-11-14T10:25:10.538Z,10630
2017-11-14T10:25:40.599Z,10283
2017-11-14T10:26:10.633Z,9260
2017-11-14T10:26:40.598Z,7570
2017-11-14T10:27:10.697Z,7130
2017-11-14T10:27:40.732Z,6590
2017-11-14T10:28:10.804Z,6227
2017-11-14T10:28:40.752Z,5980
2017-11-14T10:29:10.817Z,5823
2017-11-14T10:29:40.849Z,5617
2017-11-14T10:30:10.833Z,5470
2017-11-14T10:30:40.880Z,5303
2017-11-14T10:31:10.862Z,5147
2017-11-14T10:31:40.946Z,5000
2017-11-14T10:32:10.922Z,4870
2017-11-14T10:32:41.007Z,4743
2017-11-14T10:33:11.086Z,4630
2017-11-14T10:33:41.061Z,4523
2017-11-14T10:34:11.089Z,4437
2017-11-14T10:34:41.137Z,4357
2017-11-14T10:35:11.175Z,4287
2017-11-14T10:35:41.211Z,4227
2017-11-14T10:36:11.213Z,4187
2017-11-14T10:36:41.286Z,4160
2017-11-14T10:37:11.306Z,4153
2017-11-14T10:37:41.378Z,4137
2017-11-14T10:38:11.368Z,4143
2017-11-14T10:39:11.416Z,4160
2017-11-14T10:39:41.434Z,4163
2017-11-14T10:40:11.484Z,4180
2017-11-14T10:40:41.532Z,4203
2017-11-14T10:41:11.534Z,4227
2017-11-14T10:41:41.544Z,4253
2017-11-14T10:42:11.621Z,4270
2017-11-14T10:42:41.582Z,4290
2017-11-14T10:43:11.733Z,4307
2017-11-14T10:43:41.704Z,4327
2017-11-14T10:44:11.688Z,4337
2017-11-14T10:44:41.716Z,4363
2017-11-14T10:45:11.739Z,4383
2017-11-14T10:45:41.770Z,4400
2017-11-14T10:46:11.793Z,4413
2017-11-14T10:46:41.833Z,4423
2017-11-14T10:47:11.844Z,4430
2017-11-14T10:47:41.903Z,4440
2017-11-14T10:48:11.932Z,4453
2017-11-14T10:48:41.988Z,4480
2017-11-14T10:49:11.964Z,4503
2017-11-14T10:49:42.011Z,4533
2017-11-14T10:50:12.039Z,4557
2017-11-14T10:50:42.106Z,4560
2017-11-14T10:51:12.132Z,4537
2017-11-14T10:51:42.172Z,4507
2017-11-14T10:52:12.154Z,4463
2017-11-14T10:52:42.217Z,4403
2017-11-14T10:53:12.306Z,4317
2017-11-14T10:53:42.343Z,4240
2017-11-14T10:54:12.273Z,4163
2017-11-14T10:54:42.337Z,4090
2017-11-14T10:55:12.404Z,4033
2017-11-14T10:55:42.405Z,3973
2017-11-14T10:56:12.453Z,3893
2017-11-14T10:56:42.466Z,3793
2017-11-14T10:57:12.551Z,3680
2017-11-14T10:57:42.532Z,3570
2017-11-14T10:58:12.576Z,3473
2017-11-14T10:58:42.618Z,3407
2017-11-14T10:59:12.603Z,3313
2017-11-14T10:59:42.631Z,3250
2017-11-14T11:00:12.712Z,3177
2017-11-14T11:00:42.712Z,3103
2017-11-14T11:01:12.704Z,3027
2017-11-14T11:01:42.775Z,2953
2017-11-14T11:02:12.765Z,2900
2017-11-14T11:02:42.819Z,2863
2017-11-14T11:03:12.840Z,2853
2017-11-14T11:03:42.879Z,2867
2017-11-14T11:04:12.894Z,2900
2017-11-14T11:04:42.943Z,2923
2017-11-14T11:05:12.956Z,2927
2017-11-14T11:05:43.007Z,2913
2017-11-14T11:06:13.009Z,2890
2017-11-14T11:06:43.117Z,2873
2017-11-14T11:07:13.082Z,2860
2017-11-14T11:07:43.118Z,2867
2017-11-14T11:08:13.182Z,2883
2017-11-14T11:08:43.234Z,2910
2017-11-14T11:09:13.198Z,2933
2017-11-14T11:09:43.287Z,2953
2017-11-14T11:10:13.259Z,2963
2017-11-14T11:10:43.307Z,2977
2017-11-14T11:11:13.367Z,2987
2017-11-14T11:11:43.421Z,3003
2017-11-14T11:12:13.511Z,3007
2017-11-14T11:12:43.482Z,3020
2017-11-14T11:13:13.490Z,3030
2017-11-14T11:14:13.566Z,3020
2017-11-14T11:14:43.584Z,3017
2017-11-14T11:15:13.609Z,3010
2017-11-14T11:16:13.680Z,3020
2017-11-14T11:16:43.744Z,3027
2017-11-14T11:17:43.773Z,3020
2017-11-14T11:18:13.818Z,3000
2017-11-14T11:18:43.856Z,2983
2017-11-14T11:19:13.915Z,2973
2017-11-14T11:19:43.880Z,2980
2017-11-14T11:20:13.905Z,2997
2017-11-14T11:20:43.944Z,3023
2017-11-14T11:21:13.986Z,3063
2017-11-14T11:21:44.005Z,3107
2017-11-14T11:22:14.026Z,3140
2017-11-14T11:22:44.099Z,3187
2017-11-14T11:23:14.101Z,3237
2017-11-14T11:23:44.102Z,3317
2017-11-14T11:24:14.218Z,3400
2017-11-14T11:24:44.231Z,3477
2017-11-14T11:25:14.222Z,3557
2017-11-14T11:25:44.259Z,3637
2017-11-14T11:26:14.287Z,3730
2017-11-14T11:26:44.350Z,3820
2017-11-14T11:27:14.361Z,3893
2017-11-14T11:27:44.415Z,3947
2017-11-14T11:28:14.407Z,3937
2017-11-14T11:28:44.447Z,3917
2017-11-14T11:29:14.502Z,3897
2017-11-14T11:29:44.487Z,3883
2017-11-14T11:30:14.528Z,3900
2017-11-14T11:30:44.557Z,3953
2017-11-14T11:31:14.563Z,3983
2017-11-14T11:31:44.644Z,4037
2017-11-14T11:32:14.704Z,4117
2017-11-14T11:32:44.662Z,4213
2017-11-14T11:33:14.734Z,4270
2017-11-14T11:33:44.728Z,4377
2017-11-14T11:34:14.794Z,4523
2017-11-14T11:34:44.815Z,4670
2017-11-14T11:35:14.801Z,4783
2017-11-14T11:35:44.849Z,4867
2017-11-14T11:36:14.923Z,5053
2017-11-14T11:36:44.905Z,5237
2017-11-14T11:37:14.942Z,5350
2017-11-14T11:37:44.975Z,5413
2017-11-14T11:38:15.017Z,5517
2017-11-14T11:38:45.051Z,5577
2017-11-14T11:39:15.104Z,5627
2017-11-14T11:39:45.098Z,5670
2017-11-14T11:40:15.108Z,5730
2017-11-14T11:40:45.165Z,5800
2017-11-14T11:41:15.227Z,5877
2017-11-14T11:41:45.275Z,5923
2017-11-14T11:42:15.331Z,5987
2017-11-14T11:42:45.290Z,6100
2017-11-14T11:43:15.306Z,6213
2017-11-14T11:43:45.392Z,6430
2017-11-14T11:44:15.435Z,6667
2017-11-14T11:44:45.430Z,6953
2017-11-14T11:45:15.496Z,7217
2017-11-14T11:45:45.592Z,7527
2017-11-14T11:46:15.511Z,7767
2017-11-14T11:46:45.515Z,8280
2017-11-14T11:47:15.618Z,7893
2017-11-14T11:47:45.612Z,7857
2017-11-14T11:48:15.651Z,7837
2017-11-14T11:48:45.676Z,7883
2017-11-14T11:49:15.747Z,7997
2017-11-14T11:49:45.707Z,8107
2017-11-14T11:50:15.717Z,8157
2017-11-14T11:50:45.776Z,8137
2017-11-14T11:51:15.788Z,8037
2017-11-14T11:51:45.832Z,7870
2017-11-14T11:52:15.869Z,7847
2017-11-14T11:52:45.895Z,7580
2017-11-14T11:53:15.906Z,6913
2017-11-14T11:53:45.955Z,6533
2017-11-14T11:54:15.994Z,6353
2017-11-14T11:54:46.061Z,6193
2017-11-14T11:55:16.032Z,6013
2017-11-14T11:55:46.129Z,5870
2017-11-14T11:56:16.152Z,5847
2017-11-14T11:56:46.136Z,5830
2017-11-14T11:57:16.260Z,5833
2017-11-14T11:57:46.242Z,5857
2017-11-14T11:58:16.239Z,6050
2017-11-14T11:58:46.319Z,5877
2017-11-14T11:59:16.396Z,5803
2017-11-14T11:59:46.361Z,5640
2017-11-14T12:00:16.395Z,5547
2017-11-14T12:00:46.442Z,5420
2017-11-14T12:01:16.486Z,5383
2017-11-14T12:01:46.550Z,5430
2017-11-14T12:02:16.486Z,5547
2017-11-14T12:02:46.581Z,5620
2017-11-14T12:03:16.568Z,5653
2017-11-14T12:03:46.634Z,5663
2017-11-14T12:04:16.666Z,5660
2017-11-14T12:04:46.689Z,5633
2017-11-14T12:05:16.729Z,5563
2017-11-14T12:05:46.769Z,5463
2017-11-14T12:06:16.764Z,5373
2017-11-14T12:06:46.838Z,5267
2017-11-14T12:07:16.818Z,5133
2017-11-14T12:07:46.896Z,5017
2017-11-14T12:08:16.869Z,4910
2017-11-14T12:08:46.886Z,4837
2017-11-14T12:09:16.993Z,4780
2017-11-14T12:09:47.016Z,4703
2017-11-14T12:10:17.033Z,4647
2017-11-14T12:10:47.036Z,4583
2017-11-14T12:11:17.059Z,4537
2017-11-14T12:11:47.111Z,4510
2017-11-14T12:12:17.134Z,4493
2017-11-14T12:12:47.193Z,4460
2017-11-14T12:13:17.177Z,4437
2017-11-14T12:13:47.226Z,4370
2017-11-14T12:14:17.300Z,4277
2017-11-14T12:14:47.294Z,4183
2017-11-14T12:15:17.310Z,4130
2017-11-14T12:15:47.340Z,4077
2017-11-14T12:16:17.361Z,4027
2017-11-14T12:16:47.412Z,3973
2017-11-14T12:17:17.452Z,3963
2017-11-14T12:17:47.504Z,3953
2017-11-14T12:18:17.497Z,3983
2017-11-14T12:18:47.497Z,4010
2017-11-14T12:19:17.571Z,4037
2017-11-14T12:19:47.543Z,4060
2017-11-14T12:20:17.568Z,4090
2017-11-14T12:20:47.630Z,4100
2017-11-14T12:21:17.627Z,4080
2017-11-14T12:21:47.675Z,4033
2017-11-14T12:22:17.713Z,4023
2017-11-14T12:22:47.740Z,4010
2017-11-14T12:23:17.770Z,4017
2017-11-14T12:23:47.813Z,4050
2017-11-14T12:24:17.828Z,4107
2017-11-14T12:24:47.857Z,4210
2017-11-14T12:25:17.872Z,4337
2017-11-14T12:25:47.919Z,4500
2017-11-14T12:26:17.942Z,4703
2017-11-14T12:26:47.986Z,4943
2017-11-14T12:27:18.049Z,5200
2017-11-14T12:27:48.076Z,5483
2017-11-14T12:28:18.066Z,5760
2017-11-14T12:28:48.150Z,6030
2017-11-14T12:29:18.659Z,6297
2017-11-14T12:29:48.214Z,6440
2017-11-14T12:30:18.178Z,6250
2017-11-14T12:30:48.265Z,6207
2017-11-14T12:31:18.278Z,6223
2017-11-14T12:31:48.337Z,5863
2017-11-14T12:32:18.339Z,6223
2017-11-14T12:32:48.411Z,5273
2017-11-14T12:33:18.410Z,5097
2017-11-14T12:33:48.458Z,4790
2017-11-14T12:34:18.528Z,4643
2017-11-14T12:34:48.510Z,4570
2017-11-14T12:35:18.539Z,4480
2017-11-14T12:35:48.557Z,4380
2017-11-14T12:36:18.578Z,4303
2017-11-14T12:36:48.639Z,4333
2017-11-14T12:37:18.620Z,4423
2017-11-14T12:37:48.714Z,4567
2017-11-14T12:38:18.708Z,4780
2017-11-14T12:38:48.733Z,5027
2017-11-14T12:39:18.750Z,5317
2017-11-14T12:39:48.857Z,5680
2017-11-14T12:40:18.795Z,5970
2017-11-14T12:40:48.850Z,6187
2017-11-14T12:41:18.878Z,6373
2017-11-14T12:41:48.914Z,6537
2017-11-14T12:42:19.182Z,6737
2017-11-14T12:42:48.964Z,6913
2017-11-14T12:43:18.984Z,7173
2017-11-14T12:43:49.029Z,7307
2017-11-14T12:44:19.048Z,7390
2017-11-14T12:44:49.130Z,7323
2017-11-14T12:45:19.105Z,7387
2017-11-14T12:45:49.153Z,7467
2017-11-14T12:46:19.210Z,7490
2017-11-14T12:46:49.297Z,7503
2017-11-14T12:47:19.229Z,7560
2017-11-14T12:47:49.288Z,7567
2017-11-14T12:48:19.339Z,7590
2017-11-14T12:48:49.338Z,7627
2017-11-14T12:49:19.394Z,7480
2017-11-14T12:49:49.509Z,7280
2017-11-14T12:50:19.469Z,7113
2017-11-14T12:50:49.479Z,6877
2017-11-14T12:51:19.564Z,6590
2017-11-14T12:51:49.582Z,6330
2017-11-14T12:52:19.584Z,6090
2017-11-14T12:52:49.617Z,5817
2017-11-14T12:53:19.623Z,5543
2017-11-14T12:53:49.689Z,5330
2017-11-14T12:54:19.687Z,5170
2017-11-14T12:54:49.903Z,5150
2017-11-14T12:55:19.779Z,5203
2017-11-14T12:55:49.798Z,5340
2017-11-14T12:56:19.813Z,5513
2017-11-14T12:56:49.903Z,5807
2017-11-14T12:57:20.140Z,6180
2017-11-14T12:57:49.933Z,6470
2017-11-14T12:58:19.920Z,6703
2017-11-14T12:58:49.979Z,6940
2017-11-14T12:59:19.970Z,7150
2017-11-14T12:59:50.109Z,7330
2017-11-14T13:00:20.085Z,7467
2017-11-14T13:00:50.095Z,7517
2017-11-14T13:01:20.124Z,7333
2017-11-14T13:01:50.184Z,6907
2017-11-14T13:02:20.204Z,6310
2017-11-14T13:02:50.232Z,5617
2017-11-14T13:03:20.281Z,4977
2017-11-14T13:03:50.305Z,4460
2017-11-14T13:04:20.303Z,4087
2017-11-14T13:04:50.445Z,3857
2017-11-14T13:05:20.337Z,3707
2017-11-14T13:05:50.458Z,3617